Ed Rogowsky — WDD3622 — position and weather

sailwx.info

Track history (hours):
 
Tides and Currents Weather Stations Pressure Air Temp Water Temp Dewpoint Dewpoint Depression Visibility Wind Speed Wind Dir Waves Ship Positions

Ed Rogowsky

Owner: NEW YORK TRANS HARBOR LLC, New York, NY. More information available from US FCC via Universal Licensing System and Coast Guard Vessel Documentation Center.

Last reported at 2017-Dec-14 18:30 UTC. Time now 2017-Dec-15 04:25 UTC.
Position N 40°46' W 074°00'.

Length 22 m.

Type: Passenger vessel. MMSI: 367134010.

Date/timePositionNaut miles runAvg speedWind from/ knotsBaromVisibWave heightAir tempDewpointWater temp
2017-Dec-14 18:30N 40°46' W 074°00'3 7.1
2017-Dec-14 18:00N 40°42' W 073°60'1 2.4
2017-Dec-14 17:30N 40°43' W 074°01'2 3.6
2017-Dec-14 17:01N 40°41' W 074°02'1 2.7
2017-Dec-14 16:30N 40°42' W 074°01'1 1.7
2017-Dec-14 16:00N 40°43' W 074°02'2 2.4
2017-Dec-14 15:00N 40°45' W 074°01'510.0
2017-Dec-14 14:30N 40°40' W 074°01'0 0.0
2017-Dec-14 13:19N 40°40' W 074°01'0 0.0
2017-Dec-14 13:00N 40°40' W 074°01'0 0.0
2017-Dec-14 12:30N 40°40' W 074°01'0 0.0
2017-Dec-14 12:00N 40°40' W 074°01'0 0.0
2017-Dec-14 11:30N 40°40' W 074°01'0 0.0
2017-Dec-14 00:34N 40°40' W 074°01'0 0.1
2017-Dec-14 00:30N 40°40' W 074°01'0 0.0
2017-Dec-14 00:00N 40°40' W 074°01'2 3.3
2017-Dec-13 23:31N 40°42' W 074°01'2 4.9
2017-Dec-13 23:01N 40°44' W 074°01'2 4.5
2017-Dec-13 22:30N 40°42' W 074°00'3 6.7
2017-Dec-13 22:00N 40°46' W 074°00'3 7.0
2017-Dec-13 21:30N 40°42' W 073°60'3 5.6
2017-Dec-13 21:01N 40°45' W 074°01'3 5.9
2017-Dec-13 20:31N 40°42' W 074°00'1 1.8
2017-Dec-13 20:00N 40°42' W 074°01'1 2.8
2017-Dec-13 19:30N 40°41' W 074°03'2 4.1
2017-Dec-13 19:00N 40°42' W 074°00'3 6.8
2017-Dec-13 18:31N 40°46' W 074°00'3 6.8
2017-Dec-13 18:00N 40°42' W 073°60'2 4.8
2017-Dec-13 17:31N 40°44' W 074°01'3 6.5
2017-Dec-13 17:00N 40°41' W 074°02'1 2.8
2017-Dec-13 16:30N 40°42' W 074°01'1 2.6
2017-Dec-13 16:01N 40°43' W 074°01'2 3.0
2017-Dec-13 15:30N 40°42' W 074°00'3 6.6
2017-Dec-13 15:00N 40°46' W 074°00'5 0.4
2017-Dec-12 23:52N 40°40' W 074°01'2 5.0
2017-Dec-12 23:30N 40°42' W 074°01'2 3.8
2017-Dec-12 23:00N 40°44' W 074°01'2 3.9
2017-Dec-12 22:30N 40°42' W 074°00'3 6.5
2017-Dec-12 21:59N 40°46' W 074°00'3 7.1
2017-Dec-12 21:30N 40°42' W 073°60'1 2.6
2017-Dec-12 21:01N 40°43' W 074°01'2 3.4
2017-Dec-12 20:30N 40°41' W 074°02'1 3.0
2017-Dec-12 20:01N 40°43' W 074°01'1 2.8
2017-Dec-12 19:30N 40°41' W 074°02'2 4.0
2017-Dec-12 19:00N 40°42' W 074°00'3 6.7
2017-Dec-12 18:30N 40°46' W 074°00'3 7.0
2017-Dec-12 18:00N 40°42' W 073°60'2 4.8
2017-Dec-12 17:31N 40°44' W 074°01'3 5.1
2017-Dec-12 17:00N 40°42' W 074°02'1 1.1
2017-Dec-12 16:30N 40°42' W 074°01'2 3.9
2017-Dec-12 16:01N 40°44' W 074°01'2 3.9
2017-Dec-12 15:30N 40°42' W 074°00'3 6.7
2017-Dec-12 15:00N 40°46' W 074°00'510.6
2017-Dec-12 14:30N 40°40' W 074°01'0 0.0
2017-Dec-11 23:54N 40°40' W 074°01'2 5.4
2017-Dec-11 23:30N 40°42' W 073°60'3 5.3
2017-Dec-11 23:00N 40°45' W 073°58'2 4.1
2017-Dec-11 22:30N 40°43' W 073°58'1 2.4
2017-Dec-11 22:00N 40°42' W 073°60'3 5.4
2017-Dec-11 21:30N 40°45' W 073°58'5 9.6
2017-Dec-11 21:01N 40°40' W 074°01'0 0.0
2017-Dec-11 20:30N 40°40' W 074°01'0 0.0
2017-Dec-11 20:00N 40°40' W 074°01'0 0.0
2017-Dec-11 19:30N 40°40' W 074°01'0 0.0
2017-Dec-11 19:00N 40°40' W 074°01'0 0.0
2017-Dec-11 18:30N 40°40' W 074°01'0 0.0
2017-Dec-11 18:00N 40°40' W 074°01'0 0.0
2017-Dec-11 17:30N 40°40' W 074°01'0 0.0
2017-Dec-11 17:00N 40°40' W 074°01'0 0.0
2017-Dec-11 16:30N 40°40' W 074°01'0 0.0
2017-Dec-11 15:30N 40°40' W 074°01'3 6.3
2017-Dec-11 15:00N 40°43' W 073°58'0 0.3
2017-Dec-11 14:30N 40°43' W 073°58'1 2.9
2017-Dec-11 14:00N 40°42' W 073°60'3 5.7
2017-Dec-11 13:30N 40°45' W 073°58'2 4.1
2017-Dec-11 13:00N 40°43' W 073°58'2 4.3
2017-Dec-11 12:31N 40°41' W 074°01'1 2.1
2017-Dec-11 12:00N 40°40' W 074°01'0 0.0
2017-Dec-11 11:30N 40°40' W 074°01'0 0.0
2017-Dec-11 11:00N 40°40' W 074°01'0 0.1
2017-Dec-11 10:30N 40°40' W 074°01'0 0.0
2017-Dec-11 00:01N 40°40' W 074°01'0 0.0
2017-Dec-11 00:00N 40°40' W 074°01'2 3.6
2017-Dec-10 23:30N 40°42' W 074°01'1 1.4
2017-Dec-10 23:00N 40°43' W 074°02'1 2.4
2017-Dec-10 22:31N 40°42' W 074°00'1 2.5
2017-Dec-10 22:01N 40°43' W 074°02'1 2.3
2017-Dec-10 21:27N 40°42' W 074°00'1 2.9
2017-Dec-10 21:00N 40°42' W 074°02'1 2.5
2017-Dec-10 20:30N 40°42' W 074°00'0 0.0
2017-Dec-10 20:00N 40°42' W 074°00'2 3.1
2017-Dec-10 19:30N 40°42' W 074°02'2 3.1
2017-Dec-10 19:00N 40°42' W 074°00'0 0.0
2017-Dec-10 18:30N 40°42' W 074°00'1 2.9
2017-Dec-10 18:00N 40°42' W 074°02'1 2.9
2017-Dec-10 17:30N 40°42' W 074°00'0 0.0
2017-Dec-10 17:00N 40°42' W 074°00'1 2.9
2017-Dec-10 16:30N 40°42' W 074°02'1 2.8
2017-Dec-10 16:00N 40°42' W 074°00'2 0.1
2017-Dec-09 22:07N 40°40' W 074°01'0 0.7
2017-Dec-09 22:00N 40°40' W 074°01'2 4.2
2017-Dec-09 21:30N 40°42' W 074°00'1 2.7
2017-Dec-09 21:00N 40°43' W 074°02'1 2.7
2017-Dec-09 20:30N 40°42' W 074°00'0 0.8
2017-Dec-09 20:00N 40°42' W 074°00'1 2.6
2017-Dec-09 19:30N 40°43' W 074°02'1 2.6
2017-Dec-09 19:00N 40°42' W 074°00'0 0.0
2017-Dec-09 18:30N 40°42' W 074°00'1 2.6
2017-Dec-09 18:00N 40°42' W 074°02'1 2.6
2017-Dec-09 17:30N 40°42' W 074°00'0 0.0
2017-Dec-09 17:00N 40°42' W 074°00'1 2.8
2017-Dec-09 16:30N 40°42' W 074°02'1 2.7
2017-Dec-09 16:00N 40°42' W 074°00'1 2.9
2017-Dec-09 15:30N 40°41' W 074°01'1 1.3
2017-Dec-09 15:00N 40°40' W 074°01'0 0.0
2017-Dec-09 14:30N 40°40' W 074°01'0 0.0
2017-Dec-09 14:00N 40°40' W 074°01'0 0.0
2017-Dec-08 21:56N 40°40' W 074°01'2 4.8
2017-Dec-08 21:30N 40°42' W 074°00'1 2.7
2017-Dec-08 21:00N 40°42' W 074°02'1 2.7
2017-Dec-08 20:30N 40°42' W 074°00'0 0.0
2017-Dec-08 20:00N 40°42' W 074°00'1 2.5
2017-Dec-08 19:30N 40°43' W 074°02'1 2.5
2017-Dec-08 19:00N 40°42' W 074°00'0 0.0
2017-Dec-08 18:30N 40°42' W 074°00'1 2.5
2017-Dec-08 18:01N 40°42' W 074°02'1 2.5
2017-Dec-08 17:30N 40°42' W 074°00'0 0.0
2017-Dec-08 17:00N 40°42' W 074°00'1 2.6
2017-Dec-08 16:31N 40°42' W 074°02'1 2.6
2017-Dec-08 16:00N 40°42' W 074°00'2 4.1
2017-Dec-08 15:30N 40°40' W 074°01'0 0.0
2017-Dec-08 15:00N 40°40' W 074°01'0 0.0
2017-Dec-08 12:07N 40°40' W 074°01'0 0.6
2017-Dec-08 12:00N 40°40' W 074°01'0 0.1
2017-Dec-08 11:30N 40°40' W 074°01'0 0.0
2017-Dec-08 00:11N 40°40' W 074°01'0 0.0
2017-Dec-08 00:00N 40°40' W 074°01'2 4.2
2017-Dec-07 23:30N 40°42' W 073°60'3 5.2
2017-Dec-07 23:00N 40°45' W 073°58'2 4.2
2017-Dec-07 22:30N 40°43' W 073°58'1 2.3
2017-Dec-07 22:01N 40°42' W 073°60'3 5.3
2017-Dec-07 21:31N 40°45' W 073°58'2 4.5
2017-Dec-07 21:00N 40°42' W 073°59'3 5.3
2017-Dec-07 20:30N 40°40' W 074°01'1 1.6
2017-Dec-07 20:01N 40°40' W 074°01'1 1.6
2017-Dec-07 19:30N 40°40' W 074°01'0 0.0
2017-Dec-07 19:00N 40°40' W 074°01'0 0.0
2017-Dec-07 18:30N 40°40' W 074°01'0 0.0
2017-Dec-07 18:00N 40°40' W 074°01'0 0.0
2017-Dec-07 17:30N 40°40' W 074°01'0 0.0
2017-Dec-06 22:42N 40°40' W 074°01'0 0.1
2017-Dec-06 22:31N 40°40' W 074°01'5 9.2
2017-Dec-06 22:00N 40°45' W 074°01'3 5.7
2017-Dec-06 21:30N 40°42' W 073°60'3 5.3
2017-Dec-06 21:00N 40°45' W 074°01'  
Track history (hours):
 
Tides and Currents Weather Stations Pressure Air Temp Water Temp Dewpoint Dewpoint Depression Visibility Wind Speed Wind Dir Waves Ship Positions

Ed Rogowsky

Owner: NEW YORK TRANS HARBOR LLC, New York, NY. More information available from US FCC via Universal Licensing System and Coast Guard Vessel Documentation Center.

Last reported at 2017-Dec-14 18:30 UTC. Time now 2017-Dec-15 04:25 UTC.
Position N 40°46' W 074°00'.

Length 22 m.

Type: Passenger vessel. MMSI: 367134010.

Date/timePositionNaut miles runAvg speedWind from/ knotsBaromVisibWave heightAir tempDewpointWater temp
2017-Dec-14 18:30N 40°46' W 074°00'3 7.1
2017-Dec-14 18:00N 40°42' W 073°60'1 2.4
2017-Dec-14 17:30N 40°43' W 074°01'2 3.6
2017-Dec-14 17:01N 40°41' W 074°02'1 2.7
2017-Dec-14 16:30N 40°42' W 074°01'1 1.7
2017-Dec-14 16:00N 40°43' W 074°02'2 2.4
2017-Dec-14 15:00N 40°45' W 074°01'510.0
2017-Dec-14 14:30N 40°40' W 074°01'0 0.0
2017-Dec-14 13:19N 40°40' W 074°01'0 0.0
2017-Dec-14 13:00N 40°40' W 074°01'0 0.0
2017-Dec-14 12:30N 40°40' W 074°01'0 0.0
2017-Dec-14 12:00N 40°40' W 074°01'0 0.0
2017-Dec-14 11:30N 40°40' W 074°01'0 0.0
2017-Dec-14 00:34N 40°40' W 074°01'0 0.1
2017-Dec-14 00:30N 40°40' W 074°01'0 0.0
2017-Dec-14 00:00N 40°40' W 074°01'2 3.3
2017-Dec-13 23:31N 40°42' W 074°01'2 4.9
2017-Dec-13 23:01N 40°44' W 074°01'2 4.5
2017-Dec-13 22:30N 40°42' W 074°00'3 6.7
2017-Dec-13 22:00N 40°46' W 074°00'3 7.0
2017-Dec-13 21:30N 40°42' W 073°60'3 5.6
2017-Dec-13 21:01N 40°45' W 074°01'3 5.9
2017-Dec-13 20:31N 40°42' W 074°00'1 1.8
2017-Dec-13 20:00N 40°42' W 074°01'1 2.8
2017-Dec-13 19:30N 40°41' W 074°03'2 4.1
2017-Dec-13 19:00N 40°42' W 074°00'3 6.8
2017-Dec-13 18:31N 40°46' W 074°00'3 6.8
2017-Dec-13 18:00N 40°42' W 073°60'2 4.8
2017-Dec-13 17:31N 40°44' W 074°01'3 6.5
2017-Dec-13 17:00N 40°41' W 074°02'1 2.8
2017-Dec-13 16:30N 40°42' W 074°01'1 2.6
2017-Dec-13 16:01N 40°43' W 074°01'2 3.0
2017-Dec-13 15:30N 40°42' W 074°00'3 6.6
2017-Dec-13 15:00N 40°46' W 074°00'5 0.4
2017-Dec-12 23:52N 40°40' W 074°01'2 5.0
2017-Dec-12 23:30N 40°42' W 074°01'2 3.8
2017-Dec-12 23:00N 40°44' W 074°01'2 3.9
2017-Dec-12 22:30N 40°42' W 074°00'3 6.5
2017-Dec-12 21:59N 40°46' W 074°00'3 7.1
2017-Dec-12 21:30N 40°42' W 073°60'1 2.6
2017-Dec-12 21:01N 40°43' W 074°01'2 3.4
2017-Dec-12 20:30N 40°41' W 074°02'1 3.0
2017-Dec-12 20:01N 40°43' W 074°01'1 2.8
2017-Dec-12 19:30N 40°41' W 074°02'2 4.0
2017-Dec-12 19:00N 40°42' W 074°00'3 6.7
2017-Dec-12 18:30N 40°46' W 074°00'3 7.0
2017-Dec-12 18:00N 40°42' W 073°60'2 4.8
2017-Dec-12 17:31N 40°44' W 074°01'3 5.1
2017-Dec-12 17:00N 40°42' W 074°02'1 1.1
2017-Dec-12 16:30N 40°42' W 074°01'2 3.9
2017-Dec-12 16:01N 40°44' W 074°01'2 3.9
2017-Dec-12 15:30N 40°42' W 074°00'3 6.7
2017-Dec-12 15:00N 40°46' W 074°00'510.6
2017-Dec-12 14:30N 40°40' W 074°01'0 0.0
2017-Dec-11 23:54N 40°40' W 074°01'2 5.4
2017-Dec-11 23:30N 40°42' W 073°60'3 5.3
2017-Dec-11 23:00N 40°45' W 073°58'2 4.1
2017-Dec-11 22:30N 40°43' W 073°58'1 2.4
2017-Dec-11 22:00N 40°42' W 073°60'3 5.4
2017-Dec-11 21:30N 40°45' W 073°58'5 9.6
2017-Dec-11 21:01N 40°40' W 074°01'0 0.0
2017-Dec-11 20:30N 40°40' W 074°01'0 0.0
2017-Dec-11 20:00N 40°40' W 074°01'0 0.0
2017-Dec-11 19:30N 40°40' W 074°01'0 0.0
2017-Dec-11 19:00N 40°40' W 074°01'0 0.0
2017-Dec-11 18:30N 40°40' W 074°01'0 0.0
2017-Dec-11 18:00N 40°40' W 074°01'0 0.0
2017-Dec-11 17:30N 40°40' W 074°01'0 0.0
2017-Dec-11 17:00N 40°40' W 074°01'0 0.0
2017-Dec-11 16:30N 40°40' W 074°01'0 0.0
2017-Dec-11 15:30N 40°40' W 074°01'3 6.3
2017-Dec-11 15:00N 40°43' W 073°58'0 0.3
2017-Dec-11 14:30N 40°43' W 073°58'1 2.9
2017-Dec-11 14:00N 40°42' W 073°60'3 5.7
2017-Dec-11 13:30N 40°45' W 073°58'2 4.1
2017-Dec-11 13:00N 40°43' W 073°58'2 4.3
2017-Dec-11 12:31N 40°41' W 074°01'1 2.1
2017-Dec-11 12:00N 40°40' W 074°01'0 0.0
2017-Dec-11 11:30N 40°40' W 074°01'0 0.0
2017-Dec-11 11:00N 40°40' W 074°01'0 0.1
2017-Dec-11 10:30N 40°40' W 074°01'0 0.0
2017-Dec-11 00:01N 40°40' W 074°01'0 0.0
2017-Dec-11 00:00N 40°40' W 074°01'2 3.6
2017-Dec-10 23:30N 40°42' W 074°01'1 1.4
2017-Dec-10 23:00N 40°43' W 074°02'1 2.4
2017-Dec-10 22:31N 40°42' W 074°00'1 2.5
2017-Dec-10 22:01N 40°43' W 074°02'1 2.3
2017-Dec-10 21:27N 40°42' W 074°00'1 2.9
2017-Dec-10 21:00N 40°42' W 074°02'1 2.5
2017-Dec-10 20:30N 40°42' W 074°00'0 0.0
2017-Dec-10 20:00N 40°42' W 074°00'2 3.1
2017-Dec-10 19:30N 40°42' W 074°02'2 3.1
2017-Dec-10 19:00N 40°42' W 074°00'0 0.0
2017-Dec-10 18:30N 40°42' W 074°00'1 2.9
2017-Dec-10 18:00N 40°42' W 074°02'1 2.9
2017-Dec-10 17:30N 40°42' W 074°00'0 0.0
2017-Dec-10 17:00N 40°42' W 074°00'1 2.9
2017-Dec-10 16:30N 40°42' W 074°02'1 2.8
2017-Dec-10 16:00N 40°42' W 074°00'2 0.1
2017-Dec-09 22:07N 40°40' W 074°01'0 0.7
2017-Dec-09 22:00N 40°40' W 074°01'2 4.2
2017-Dec-09 21:30N 40°42' W 074°00'1 2.7
2017-Dec-09 21:00N 40°43' W 074°02'1 2.7
2017-Dec-09 20:30N 40°42' W 074°00'0 0.8
2017-Dec-09 20:00N 40°42' W 074°00'1 2.6
2017-Dec-09 19:30N 40°43' W 074°02'1 2.6
2017-Dec-09 19:00N 40°42' W 074°00'0 0.0
2017-Dec-09 18:30N 40°42' W 074°00'1 2.6
2017-Dec-09 18:00N 40°42' W 074°02'1 2.6
2017-Dec-09 17:30N 40°42' W 074°00'0 0.0
2017-Dec-09 17:00N 40°42' W 074°00'1 2.8
2017-Dec-09 16:30N 40°42' W 074°02'1 2.7
2017-Dec-09 16:00N 40°42' W 074°00'1 2.9
2017-Dec-09 15:30N 40°41' W 074°01'1 1.3
2017-Dec-09 15:00N 40°40' W 074°01'0 0.0
2017-Dec-09 14:30N 40°40' W 074°01'0 0.0
2017-Dec-09 14:00N 40°40' W 074°01'0 0.0
2017-Dec-08 21:56N 40°40' W 074°01'2 4.8
2017-Dec-08 21:30N 40°42' W 074°00'1 2.7
2017-Dec-08 21:00N 40°42' W 074°02'1 2.7
2017-Dec-08 20:30N 40°42' W 074°00'0 0.0
2017-Dec-08 20:00N 40°42' W 074°00'1 2.5
2017-Dec-08 19:30N 40°43' W 074°02'1 2.5
2017-Dec-08 19:00N 40°42' W 074°00'0 0.0
2017-Dec-08 18:30N 40°42' W 074°00'1 2.5
2017-Dec-08 18:01N 40°42' W 074°02'1 2.5
2017-Dec-08 17:30N 40°42' W 074°00'0 0.0
2017-Dec-08 17:00N 40°42' W 074°00'1 2.6
2017-Dec-08 16:31N 40°42' W 074°02'1 2.6
2017-Dec-08 16:00N 40°42' W 074°00'2 4.1
2017-Dec-08 15:30N 40°40' W 074°01'0 0.0
2017-Dec-08 15:00N 40°40' W 074°01'0 0.0
2017-Dec-08 12:07N 40°40' W 074°01'0 0.6
2017-Dec-08 12:00N 40°40' W 074°01'0 0.1
2017-Dec-08 11:30N 40°40' W 074°01'0 0.0
2017-Dec-08 00:11N 40°40' W 074°01'0 0.0
2017-Dec-08 00:00N 40°40' W 074°01'2 4.2
2017-Dec-07 23:30N 40°42' W 073°60'3 5.2
2017-Dec-07 23:00N 40°45' W 073°58'2 4.2
2017-Dec-07 22:30N 40°43' W 073°58'1 2.3
2017-Dec-07 22:01N 40°42' W 073°60'3 5.3
2017-Dec-07 21:31N 40°45' W 073°58'2 4.5
2017-Dec-07 21:00N 40°42' W 073°59'3 5.3
2017-Dec-07 20:30N 40°40' W 074°01'1 1.6
2017-Dec-07 20:01N 40°40' W 074°01'1 1.6
2017-Dec-07 19:30N 40°40' W 074°01'0 0.0
2017-Dec-07 19:00N 40°40' W 074°01'0 0.0
2017-Dec-07 18:30N 40°40' W 074°01'0 0.0
2017-Dec-07 18:00N 40°40' W 074°01'0 0.0
2017-Dec-07 17:30N 40°40' W 074°01'0 0.0
2017-Dec-06 22:42N 40°40' W 074°01'0 0.1
2017-Dec-06 22:31N 40°40' W 074°01'5 9.2
2017-Dec-06 22:00N 40°45' W 074°01'3 5.7
2017-Dec-06 21:30N 40°42' W 073°60'3 5.3
2017-Dec-06 21:00N 40°45' W 074°01'  

Dump ship's entire track history